Time;durP1;ratioP1;P1;durP2;ratioP2;P2;SDS_P1;SDS_P2;PMS_P1;PMS_P2;Temp;Humidity;BMP_temperature;BMP_pressure;BME280_temperature;BME280_humidity;BME280_pressure;Samples;Min_cycle;Max_cycle;Signal;HPM_P1;HPM_P2
2023/04/20 00:01:40;;;;;;;;;9.00;7.75;;;;;12.57;73.77;100712.09;146621;563;46020;-75
2023/04/20 00:04:44;;;;;;;;;7.00;6.75;;;;;12.57;74.09;100717.31;146618;702;46918;-75
2023/04/20 00:07:37;;;;;;;;;6.33;5.33;;;;;12.55;73.63;100713.75;146623;669;46020;-75
2023/04/20 00:10:36;;;;;;;;;6.75;5.50;;;;;12.49;74.02;100711.75;146618;670;46918;-77
2023/04/20 00:13:41;;;;;;;;;6.50;5.75;;;;;12.50;73.38;100712.69;146624;640;46010;-78
2023/04/20 00:16:38;;;;;;;;;7.75;6.25;;;;;12.48;73.91;100716.09;146619;679;46014;-78
2023/04/20 00:19:36;;;;;;;;;7.00;5.00;;;;;12.46;73.55;100719.44;146623;704;46021;-76
2023/04/20 00:22:32;;;;;;;;;7.50;7.00;;;;;12.38;73.26;100706.12;146621;629;46014;-76
2023/04/20 00:25:48;;;;;;;;;6.75;6.50;;;;;12.31;73.50;100716.19;146621;564;46020;-76
2023/04/20 00:28:52;;;;;;;;;8.50;7.75;;;;;12.23;73.78;100715.84;146622;594;45016;-78
2023/04/20 00:31:54;;;;;;;;;12.00;8.75;;;;;12.21;74.19;100710.59;146621;706;46020;-75
2023/04/20 00:35:02;;;;;;;;;8.75;7.75;;;;;12.14;73.41;100705.03;146618;563;46017;-75
2023/04/20 00:38:09;;;;;;;;;10.25;9.25;;;;;12.04;74.55;100693.34;146623;655;47010;-77
2023/04/20 00:41:07;;;;;;;;;9.00;8.75;;;;;12.10;74.53;100700.53;146619;704;46012;-75
2023/04/20 00:44:02;;;;;;;;;7.00;7.00;;;;;12.11;74.44;100708.37;146623;574;46020;-76
2023/04/20 00:47:07;;;;;;;;;7.00;6.50;;;;;12.12;74.32;100710.19;146619;733;46016;-77
2023/04/20 00:50:09;;;;;;;;;8.00;8.00;;;;;12.13;74.00;100708.47;146624;629;46010;-78
2023/04/20 00:53:08;;;;;;;;;8.25;7.25;;;;;12.09;74.38;100694.44;146617;563;47016;-77
2023/04/20 00:56:28;;;;;;;;;9.00;6.25;;;;;12.04;74.28;100695.94;146624;603;46010;-77
2023/04/20 00:59:28;;;;;;;;;7.00;4.75;;;;;11.98;74.12;100693.06;146619;625;46018;-76
2023/04/20 01:02:31;;;;;;;;;5.75;5.00;;;;;11.98;74.45;100700.84;146624;636;46011;-76
2023/04/20 01:05:33;;;;;;;;;5.75;5.25;;;;;11.98;73.95;100696.53;146619;639;46014;-76
2023/04/20 01:08:44;;;;;;;;;6.75;6.00;;;;;12.01;73.75;100699.28;146622;617;46020;-75
2023/04/20 01:11:44;;;;;;;;;6.00;6.00;;;;;12.01;73.74;100704.47;146619;695;46012;-73
2023/04/20 01:14:41;;;;;;;;;8.50;7.00;;;;;11.96;74.13;100697.28;146624;719;46010;-74
2023/04/20 01:17:48;;;;;;;;;6.75;5.75;;;;;11.88;73.43;100690.87;146620;727;46016;-74
2023/04/20 01:20:49;;;;;;;;;6.00;6.00;;;;;11.83;74.10;100695.81;146621;580;46020;-76
2023/04/20 01:23:47;;;;;;;;;6.00;6.00;;;;;11.80;74.42;100698.28;146620;640;46012;-77
2023/04/20 01:26:52;;;;;;;;;;;;;;;;;;;;;
2023/04/20 01:29:50;;;;;;;;;5.25;5.00;;;;;11.70;74.92;100696.06;146620;590;46016;-78
2023/04/20 01:32:56;;;;;;;;;5.75;4.25;;;;;11.64;75.15;100695.78;146622;565;46011;-78
2023/04/20 01:35:57;;;;;;;;;5.50;5.00;;;;;11.59;75.13;100700.78;146620;600;46035;-78
2023/04/20 01:39:01;;;;;;;;;3.25;3.25;;;;;11.54;75.28;100697.06;146623;648;46020;-79
2023/04/20 01:42:18;;;;;;;;;5.00;3.50;;;;;11.52;75.47;100699.59;146619;565;46016;-78
2023/04/20 01:45:20;;;;;;;;;5.50;3.75;;;;;11.48;75.30;100694.19;146622;570;46020;-76
2023/04/20 01:48:29;;;;;;;;;7.00;6.00;;;;;11.47;75.33;100700.22;146619;570;46017;-77
2023/04/20 01:51:23;;;;;;;;;5.00;5.00;;;;;11.43;75.88;100700.88;146623;570;46020;-75
2023/04/20 01:54:38;;;;;;;;;9.00;6.25;;;;;11.38;75.05;100687.69;146617;576;46012;-78
2023/04/20 01:57:35;;;;;;;;;4.00;2.50;;;;;11.33;75.87;100699.53;146623;660;46020;-78
2023/04/20 02:00:37;;;;;;;;;6.00;4.75;;;;;11.25;75.20;100686.22;146618;597;46916;-78
2023/04/20 02:03:29;;;;;;;;;4.75;4.75;;;;;11.22;75.89;100691.25;146624;564;46010;-79
2023/04/20 02:06:33;;;;;;;;;7.50;6.50;;;;;11.19;75.74;100685.91;146617;633;46016;-78
2023/04/20 02:09:37;;;;;;;;;7.25;6.00;;;;;11.20;75.77;100685.09;146622;569;46020;-78
2023/04/20 02:12:35;;;;;;;;;4.75;4.75;;;;;11.20;75.60;100686.81;146617;624;46016;-79
2023/04/20 02:15:40;;;;;;;;;5.25;5.25;;;;;11.22;75.18;100687.78;146624;574;46020;-79
2023/04/20 02:18:42;;;;;;;;;7.50;4.75;;;;;11.26;76.17;100687.09;146618;609;46016;-79
2023/04/20 02:21:40;;;;;;;;;5.00;5.00;;;;;11.26;75.67;100692.28;146622;644;46020;-79
2023/04/20 02:24:37;;;;;;;;;5.00;4.25;;;;;11.21;75.13;100689.44;146619;573;46916;-76
2023/04/20 02:27:41;;;;;;;;;5.75;5.75;;;;;11.18;74.76;100691.03;146620;571;47010;-76
2023/04/20 02:30:43;;;;;;;;;6.00;5.50;;;;;11.14;75.10;100689.09;146618;564;47012;-79
2023/04/20 02:33:36;;;;;;;;;4.00;4.00;;;;;11.06;75.67;100689.62;146624;662;46021;-78
2023/04/20 02:36:33;;;;;;;;;5.00;4.75;;;;;11.03;75.51;100683.41;146621;573;46014;-78
2023/04/20 02:40:00;;;;;;;;;;;;;;;;;;;;;
2023/04/20 02:43:09;;;;;;;;;6.00;4.00;;;;;10.94;75.31;100693.34;146620;673;46916;-82
2023/04/20 02:46:01;;;;;;;;;4.00;3.00;;;;;10.99;75.63;100686.66;146624;575;46020;-82
2023/04/20 02:48:56;;;;;;;;;4.75;4.50;;;;;11.06;76.15;100686.16;146620;575;46016;-81
2023/04/20 02:51:56;;;;;;;;;4.00;4.00;;;;;11.15;75.64;100693.47;146624;651;46010;-75
2023/04/20 02:54:52;;;;;;;;;4.75;4.75;;;;;11.18;75.18;100691.91;146618;598;46016;-77
2023/04/20 02:57:53;;;;;;;;;7.00;6.00;;;;;11.17;74.71;100690.12;146620;683;46020;-77
2023/04/20 03:00:53;;;;;;;;;8.50;8.00;;;;;11.14;74.78;100686.50;146620;580;46016;-74
2023/04/20 03:03:56;;;;;;;;;7.00;6.25;;;;;11.12;74.76;100678.66;146625;627;45030;-76
2023/04/20 03:06:52;;;;;;;;;12.00;8.50;;;;;11.18;74.89;100694.50;146619;601;46016;-76
2023/04/20 03:09:51;;;;;;;;;9.25;7.00;;;;;11.21;74.51;100697.25;146624;569;46010;-75
2023/04/20 03:12:42;;;;;;;;;7.25;7.00;;;;;11.18;74.55;100689.31;146621;657;46012;-76
2023/04/20 03:15:37;;;;;;;;;5.50;4.75;;;;;11.16;74.38;100695.25;146622;570;46020;-78
2023/04/20 03:18:31;;;;;;;;;9.00;9.00;;;;;11.09;73.85;100686.31;146621;648;46016;-80
2023/04/20 03:21:22;;;;;;;;;14.50;11.75;;;;;11.06;74.48;100691.34;146626;580;46010;-75
2023/04/20 03:24:35;;;;;;;;;7.25;7.00;;;;;11.01;73.97;100685.03;146619;590;46014;-77
2023/04/20 03:27:37;;;;;;;;;6.25;5.25;;;;;10.92;74.84;100682.88;146623;620;46020;-77
2023/04/20 03:30:47;;;;;;;;;5.75;4.75;;;;;10.89;74.79;100693.09;146621;578;46017;-77
2023/04/20 03:33:45;;;;;;;;;6.75;6.75;;;;;10.82;74.73;100688.41;146621;613;46020;-76
2023/04/20 03:36:37;;;;;;;;;9.75;9.00;;;;;10.74;75.68;100701.00;146620;615;46012;-75
2023/04/20 03:39:39;;;;;;;;;8.25;6.50;;;;;10.68;75.21;100703.28;146622;587;45021;-77
2023/04/20 03:42:46;;;;;;;;;4.75;4.75;;;;;10.10;75.18;100612.19;146621;584;46016;-79
2023/04/20 03:45:46;;;;;;;;;5.00;5.00;;;;;10.64;75.99;100710.00;146624;569;46010;-79
2023/04/20 03:48:57;;;;;;;;;7.00;7.00;;;;;10.62;76.44;100705.56;146619;564;46016;-79
2023/04/20 03:51:49;;;;;;;;;7.00;6.50;;;;;10.61;76.76;100706.38;146625;600;46011;-79
2023/04/20 03:54:44;;;;;;;;;5.00;5.00;;;;;10.61;76.69;100702.09;146621;617;46016;-79
2023/04/20 03:57:57;;;;;;;;;7.00;6.25;;;;;10.60;76.14;100705.50;146623;684;47020;-79
2023/04/20 04:01:19;;;;;;;;;7.75;7.75;;;;;10.61;76.07;100708.97;146619;620;46016;-76
2023/04/20 04:04:22;;;;;;;;;8.50;6.25;;;;;10.62;76.15;100718.53;146623;566;46010;-78
2023/04/20 04:07:17;;;;;;;;;7.50;6.75;;;;;10.62;76.46;100721.13;146616;685;46017;-76
2023/04/20 04:10:17;;;;;;;;;13.25;8.75;;;;;10.67;76.78;100723.97;146625;736;45030;-77
2023/04/20 04:13:15;;;;;;;;;10.50;8.00;;;;;10.72;76.75;100727.69;146617;638;46016;-75
2023/04/20 04:16:14;;;;;;;;;8.50;7.75;;;;;10.79;76.38;100729.78;146626;570;46010;-76
2023/04/20 04:19:08;;;;;;;;;14.75;14.75;;;;;10.89;76.62;100726.81;146616;580;46012;-75
2023/04/20 04:22:17;;;;;;;;;30.00;24.50;;;;;10.97;74.99;100722.03;146622;590;46010;-75
2023/04/20 04:25:17;;;;;;;;;11.00;9.00;;;;;11.02;75.23;100731.78;146619;577;46012;-74
2023/04/20 04:28:27;;;;;;;;;7.75;7.00;;;;;11.08;75.62;100726.00;146623;641;46021;-76
2023/04/20 04:31:28;;;;;;;;;7.25;5.75;;;;;11.08;75.20;100726.91;146621;569;46014;-75
2023/04/20 04:34:39;;;;;;;;;;;;;;;;;;;;;
2023/04/20 04:37:31;;;;;;;;;10.75;10.50;;;;;11.27;76.84;100726.09;146618;646;46018;-75
2023/04/20 04:40:30;;;;;;;;;13.00;12.00;;;;;11.50;75.83;100732.41;146622;582;46010;-78
2023/04/20 04:43:38;;;;;;;;;21.00;18.00;;;;;11.78;75.39;100731.09;146616;632;46027;-79
2023/04/20 04:46:36;;;;;;;;;17.00;17.00;;;;;12.14;75.59;100739.69;146621;613;45020;-73
2023/04/20 04:49:41;;;;;;;;;29.00;26.00;;;;;12.50;74.57;100738.69;146617;573;46016;-74
2023/04/20 04:52:39;;;;;;;;;49.50;38.25;;;;;12.18;72.79;100640.25;146620;633;46021;-73
2023/04/20 04:55:45;;;;;;;;;106.33;91.67;;;;;13.08;72.49;100743.75;146617;796;46016;-73
2023/04/20 04:58:46;;;;;;;;;96.67;79.00;;;;;13.35;72.66;100739.69;146627;650;45021;-77
2023/04/20 05:01:57;;;;;;;;;65.50;51.50;;;;;13.66;70.70;100740.91;146623;586;46014;-76
2023/04/20 05:04:58;;;;;;;;;64.25;49.25;;;;;13.89;70.64;100747.00;146622;592;47010;-77
2023/04/20 05:08:06;;;;;;;;;;;;;;;;;;;;;
2023/04/20 05:11:01;;;;;;;;;48.50;39.50;;;;;14.19;69.12;100743.78;146623;563;46020;-77
2023/04/20 05:14:02;;;;;;;;;57.75;43.75;;;;;14.21;68.51;100748.22;146619;647;46012;-75
2023/04/20 05:16:57;;;;;;;;;56.25;42.25;;;;;14.28;69.29;100742.37;146623;614;46020;-77
2023/04/20 05:19:55;;;;;;;;;41.00;32.50;;;;;14.41;68.94;100743.72;146615;587;46016;-77
2023/04/20 05:22:53;;;;;;;;;28.75;25.50;;;;;14.53;68.35;100746.78;146623;608;46010;-74
2023/04/20 05:25:48;;;;;;;;;15.50;12.75;;;;;14.70;66.07;100750.03;146617;572;47012;-74
2023/04/20 05:28:46;;;;;;;;;14.25;14.00;;;;;14.81;67.70;100742.53;146623;592;46011;-75
2023/04/20 05:32:06;;;;;;;;;7.00;7.00;;;;;15.05;67.38;100744.22;146618;607;46914;-77
2023/04/20 05:34:59;;;;;;;;;6.50;5.25;;;;;15.23;66.14;100747.41;146623;603;46020;-78
2023/04/20 05:38:01;;;;;;;;;9.25;6.00;;;;;15.34;66.41;100758.22;146618;571;46016;-77
2023/04/20 05:41:05;;;;;;;;;9.00;7.00;;;;;14.89;68.33;100654.94;146622;724;46020;-76
2023/04/20 05:44:04;;;;;;;;;10.50;6.00;;;;;15.75;67.66;100756.06;146617;655;47013;-78
2023/04/20 05:47:05;;;;;;;;;8.25;6.00;;;;;16.01;66.42;100749.91;146623;580;46014;-77
2023/04/20 05:50:28;;;;;;;;;7.50;7.00;;;;;16.15;65.05;100714.56;146619;645;46013;-78
2023/04/20 05:53:31;;;;;;;;;7.33;6.33;;;;;16.54;63.63;100750.53;146622;569;46021;-77
2023/04/20 05:56:33;;;;;;;;;8.67;7.33;;;;;16.70;63.75;100756.16;146621;579;46012;-77
2023/04/20 05:59:40;;;;;;;;;10.33;7.00;;;;;16.83;63.62;100751.34;146620;570;46020;-77
2023/04/20 06:02:41;;;;;;;;;6.67;6.00;;;;;17.03;63.83;100743.09;146619;564;46016;-77
2023/04/20 06:05:42;;;;;;;;;10.25;8.25;;;;;17.25;62.29;100758.50;146622;624;46014;-78
2023/04/20 06:08:43;;;;;;;;;11.00;9.25;;;;;17.38;61.95;100753.56;146620;563;46012;-78
2023/04/20 06:11:39;;;;;;;;;7.25;7.00;;;;;17.47;61.98;100759.03;146622;657;46020;-79
2023/04/20 06:14:37;;;;;;;;;11.00;8.25;;;;;17.63;61.10;100757.66;146621;588;46012;-76
2023/04/20 06:17:39;;;;;;;;;8.50;7.50;;;;;17.80;61.27;100755.47;146620;573;46020;-76
2023/04/20 06:20:47;;;;;;;;;8.33;7.67;;;;;17.90;61.45;100765.28;146622;578;46012;-77
2023/04/20 06:23:44;;;;;;;;;5.67;5.00;;;;;17.97;60.71;100757.62;146622;628;48010;-77
2023/04/20 06:26:48;;;;;;;;;7.00;7.00;;;;;18.13;60.10;100757.91;146620;580;46014;-75
2023/04/20 06:29:46;;;;;;;;;6.00;6.00;;;;;18.23;60.61;100750.28;146611;732;46020;-77
2023/04/20 06:32:59;;;;;;;;;6.75;6.00;;;;;18.41;60.69;100756.72;146618;616;46016;-77
2023/04/20 06:36:05;;;;;;;;;7.33;6.00;;;;;18.56;59.93;100757.03;146623;637;46011;-77
2023/04/20 06:38:57;;;;;;;;;9.00;7.67;;;;;18.68;59.46;100756.38;146610;581;47916;-76
2023/04/20 06:42:01;;;;;;;;;8.33;4.33;;;;;18.90;58.68;100761.19;146624;644;46020;-77
2023/04/20 06:45:05;;;;;;;;;10.00;7.33;;;;;19.06;57.00;100756.22;146619;644;46017;-76
2023/04/20 06:48:07;;;;;;;;;7.67;6.67;;;;;19.12;56.52;100762.47;146625;630;46010;-75
2023/04/20 06:51:10;;;;;;;;;8.33;8.33;;;;;19.22;57.78;100766.16;146619;566;46017;-77
2023/04/20 06:54:06;;;;;;;;;10.67;7.33;;;;;18.89;56.71;100688.50;146623;590;46010;-78
2023/04/20 06:56:58;;;;;;;;;10.00;9.25;;;;;19.53;56.15;100759.63;146608;576;47916;-78
2023/04/20 07:00:00;;;;;;;;;13.25;12.00;;;;;19.68;58.23;100769.50;146620;573;47010;-81
2023/04/20 07:03:17;;;;;;;;;12.00;8.00;;;;;19.85;57.23;100759.25;146618;589;46016;-80
2023/04/20 07:06:24;;;;;;;;;7.67;7.00;;;;;20.09;56.32;100763.94;146622;576;46021;-81
2023/04/20 07:09:31;;;;;;;;;10.67;9.67;;;;;20.30;54.93;100766.84;146620;598;46014;-82
2023/04/20 07:12:27;;;;;;;;;8.67;7.33;;;;;20.39;54.24;100775.75;146624;576;46011;-87
2023/04/20 07:15:19;;;;;;;;;11.00;10.67;;;;;20.19;55.63;100771.12;146620;569;46918;-85
2023/04/20 07:18:19;;;;;;;;;8.33;7.33;;;;;19.98;55.94;100773.47;146622;633;46020;-87
2023/04/20 07:21:23;;;;;;;;;10.00;10.00;;;;;19.86;56.93;100773.28;146621;708;46012;-84
2023/04/20 07:24:18;;;;;;;;;11.00;9.00;;;;;19.82;56.84;100778.50;146623;580;45028;-83
2023/04/20 07:27:10;;;;;;;;;6.33;6.33;;;;;19.81;57.10;100768.84;146620;617;47014;-80
2023/04/20 07:30:21;;;;;;;;;7.33;6.67;;;;;19.86;58.09;100770.66;146620;614;47010;-80
2023/04/20 07:33:26;;;;;;;;;9.00;8.00;;;;;19.90;56.90;100772.47;146619;566;46017;-80
2023/04/20 07:36:24;;;;;;;;;11.00;9.00;;;;;20.02;56.41;100772.63;146622;570;46020;-81
2023/04/20 07:39:38;;;;;;;;;8.00;7.00;;;;;20.23;55.99;100770.28;146620;573;46918;-82
2023/04/20 07:42:45;;;;;;;;;11.33;8.33;;;;;20.49;56.76;100775.84;146621;578;46021;-81
2023/04/20 07:45:47;;;;;;;;;10.00;8.00;;;;;20.67;56.15;100775.22;146619;594;46016;-80
2023/04/20 07:48:58;;;;;;;;;9.00;8.00;;;;;20.78;54.73;100777.97;146622;631;46021;-83
2023/04/20 07:52:00;;;;;;;;;7.33;7.33;;;;;20.75;54.44;100773.56;146623;644;46012;-82
2023/04/20 07:55:06;;;;;;;;;;;;;;;;;;;;;
2023/04/20 07:57:59;;;;;;;;;11.75;10.00;;;;;20.82;54.94;100765.72;146621;602;46012;-81
2023/04/20 08:01:08;;;;;;;;;8.33;8.33;;;;;20.99;55.20;100769.37;146624;583;46010;-82
2023/04/20 08:04:11;;;;;;;;;12.75;9.25;;;;;21.07;56.17;100770.34;146619;730;46016;-81
2023/04/20 08:07:07;;;;;;;;;12.25;11.25;;;;;21.09;53.43;100775.63;146706;570;46014;-82
2023/04/20 08:10:11;;;;;;;;;14.50;12.25;;;;;21.10;56.11;100777.41;146620;602;46012;-82
2023/04/20 08:13:19;;;;;;;;;17.75;14.75;;;;;21.15;54.10;100776.59;146617;604;47020;-81
2023/04/20 08:16:13;;;;;;;;;18.50;16.75;;;;;21.14;53.06;100772.16;146617;563;46012;-81
2023/04/20 08:19:11;;;;;;;;;13.33;12.00;;;;;21.00;51.92;100765.91;146621;577;46010;-81
2023/04/20 08:22:25;;;;;;;;;12.00;12.00;;;;;20.82;52.42;100763.97;146616;619;46017;-83
2023/04/20 08:25:47;;;;;;;;;16.00;13.00;;;;;19.98;51.90;100676.09;146619;706;46010;-81
2023/04/20 08:29:07;;;;;;;;;18.25;16.25;;;;;20.27;52.25;100765.94;146616;583;46013;-83
2023/04/20 08:32:07;;;;;;;;;17.00;13.75;;;;;20.13;53.62;100749.97;146620;663;46022;-83
2023/04/20 08:35:08;;;;;;;;;17.25;14.00;;;;;20.14;54.47;100759.63;146615;626;46014;-82
2023/04/20 08:38:12;;;;;;;;;19.75;14.50;;;;;20.34;55.73;100754.59;146618;714;46010;-80
2023/04/20 08:41:13;;;;;;;;;10.67;10.33;;;;;20.61;50.85;100756.69;146616;569;46016;-81
2023/04/20 08:44:20;;;;;;;;;11.00;11.00;;;;;20.58;48.33;100755.78;146622;579;46020;-85
2023/04/20 08:47:23;;;;;;;;;11.67;10.67;;;;;20.40;51.15;100757.31;146615;607;46016;-81
2023/04/20 08:50:19;;;;;;;;;8.33;7.00;;;;;20.25;51.36;100760.66;146623;627;46010;-81
2023/04/20 08:53:26;;;;;;;;;10.00;9.00;;;;;20.33;53.52;100765.13;146618;571;46016;-82
2023/04/20 08:56:24;;;;;;;;;9.67;9.67;;;;;20.41;49.24;100750.31;146625;587;46020;-83
2023/04/20 08:59:37;;;;;;;;;11.00;10.67;;;;;20.33;51.84;100747.56;146619;564;46916;-84
2023/04/20 09:02:29;;;;;;;;;10.33;9.00;;;;;20.17;51.25;100743.88;146619;621;46020;-85
2023/04/20 09:06:05;;;;;;;;;12.50;11.00;;;;;20.01;55.65;100734.03;146614;689;46016;-81
2023/04/20 09:09:09;;;;;;;;;11.00;8.00;;;;;19.91;52.69;100737.41;146625;571;45020;-82
2023/04/20 09:12:18;;;;;;;;;5.00;5.00;;;;;19.85;51.28;100746.09;146626;574;46016;-86
2023/04/20 09:15:31;;;;;;;;;5.00;4.00;;;;;19.69;50.91;100733.56;146632;576;46020;-83
2023/04/20 09:18:39;;;;;;;;;5.33;4.00;;;;;19.69;50.66;100739.75;146627;644;46012;-85
2023/04/20 09:21:35;;;;;;;;;5.33;5.00;;;;;19.82;50.35;100743.41;146631;590;46010;-82
2023/04/20 09:24:55;;;;;;;;;7.67;5.67;;;;;20.01;53.39;100741.91;146623;636;46016;-84
2023/04/20 09:27:45;;;;;;;;;10.33;7.67;;;;;20.09;52.03;100740.25;146711;564;46013;-84
2023/04/20 09:30:50;;;;;;;;;8.00;7.00;;;;;20.09;51.36;100734.97;146624;635;46012;-85
2023/04/20 09:33:42;;;;;;;;;4.00;4.00;;;;;20.06;51.51;100741.13;146630;605;46020;-84
2023/04/20 09:36:46;;;;;;;;;5.33;5.33;;;;;20.04;50.84;100741.97;146627;613;47021;-82
2023/04/20 09:39:46;;;;;;;;;3.33;3.00;;;;;19.92;49.66;100736.53;146629;579;47010;-82
2023/04/20 09:42:46;;;;;;;;;7.00;6.67;;;;;19.84;51.45;100721.53;146625;574;46016;-83
2023/04/20 09:45:32;;;;;;;;;8.00;6.00;;;;;19.82;51.34;100731.16;146696;565;46022;-86
2023/04/20 09:48:30;;;;;;;;;7.33;5.67;;;;;19.91;52.22;100719.00;146620;575;46012;-81
2023/04/20 09:51:37;;;;;;;;;7.00;6.67;;;;;18.99;51.92;100525.75;146615;578;46021;-81
2023/04/20 09:54:32;;;;;;;;;5.00;4.00;;;;;20.23;50.79;100712.34;146613;564;46016;-81
2023/04/20 09:57:35;;;;;;;;;6.33;6.33;;;;;19.89;52.50;100611.06;146616;631;47010;-82
2023/04/20 10:00:42;;;;;;;;;4.67;4.33;;;;;20.82;50.18;100726.19;146609;601;46016;-84
2023/04/20 10:03:56;;;;;;;;;6.00;5.00;;;;;21.02;49.55;100715.81;146617;588;46020;-83
2023/04/20 10:07:14;;;;;;;;;4.33;4.33;;;;;20.14;51.58;100533.25;146610;721;46016;-84
2023/04/20 10:10:45;;;;;;;;;5.67;5.33;;;;;20.55;49.61;100592.44;146620;563;45020;-84
2023/04/20 10:13:44;;;;;;;;;6.67;5.33;;;;;21.20;48.97;100706.28;146611;564;46012;-84
2023/04/20 10:16:30;;;;;;;;;4.67;4.67;;;;;21.18;48.83;100707.13;146712;567;46023;-82
2023/04/20 10:19:38;;;;;;;;;4.00;4.00;;;;;21.30;48.67;100709.88;146622;628;45041;-82
2023/04/20 10:23:02;;;;;;;;;6.00;6.00;;;;;21.37;47.76;100708.19;146620;631;45916;-83
2023/04/20 10:26:06;;;;;;;;;5.67;5.33;;;;;21.37;50.70;100705.53;146619;678;46016;-87
2023/04/20 10:28:58;;;;;;;;;7.00;6.00;;;;;21.35;48.88;100700.28;146623;594;46020;-87
2023/04/20 10:32:15;;;;;;;;;7.00;5.00;;;;;21.34;48.96;100698.50;146620;576;47014;-81
2023/04/20 10:35:33;;;;;;;;;6.67;6.67;;;;;21.28;47.07;100697.53;146625;591;46020;-83
2023/04/20 10:38:51;;;;;;;;;7.67;6.67;;;;;21.15;50.44;100702.75;146621;628;46016;-80
2023/04/20 10:42:01;;;;;;;;;4.00;4.00;;;;;21.07;49.72;100693.88;146623;597;46010;-83
2023/04/20 10:44:58;;;;;;;;;6.00;6.00;;;;;21.19;49.40;100693.09;146622;574;46015;-81
2023/04/20 10:48:13;;;;;;;;;3.33;3.33;;;;;21.29;45.83;100684.37;146623;637;46020;-89
2023/04/20 10:51:35;;;;;;;;;4.67;4.67;;;;;21.41;48.03;100684.50;146621;594;46913;-80
2023/04/20 10:54:28;;;;;;;;;5.00;5.00;;;;;21.47;44.24;100688.94;146623;584;46030;-87
2023/04/20 10:57:28;;;;;;;;;7.00;4.00;;;;;21.50;45.83;100696.88;146619;581;47012;-82
2023/04/20 11:01:02;;;;;;;;;6.67;3.00;;;;;21.38;44.10;100678.31;146625;572;46010;-81
2023/04/20 11:03:57;;;;;;;;;3.00;3.00;;;;;21.33;44.13;100685.28;146617;575;46016;-86
2023/04/20 11:07:06;;;;;;;;;4.00;3.67;;;;;21.27;45.56;100687.87;146624;615;46020;-80
2023/04/20 11:10:04;;;;;;;;;4.00;4.00;;;;;21.38;47.00;100680.97;146621;586;46016;-81
2023/04/20 11:13:04;;;;;;;;;6.00;5.00;;;;;20.99;47.47;100574.31;146625;568;46014;-81
2023/04/20 11:16:04;;;;;;;;;5.00;4.00;;;;;21.68;44.63;100672.31;146622;569;46014;-81
2023/04/20 11:19:02;;;;;;;;;6.00;5.00;;;;;21.72;46.77;100674.13;146627;630;46030;-82
2023/04/20 11:22:10;;;;;;;;;5.33;5.33;;;;;21.11;45.81;100553.28;146624;607;45021;-84
2023/04/20 11:25:34;;;;;;;;;;;;;;;;;;;;;
2023/04/20 11:28:33;;;;;;;;;6.67;4.00;;;;;21.78;48.59;100662.72;146619;571;47012;-77
2023/04/20 11:31:39;;;;;;;;;4.67;3.67;;;;;21.85;45.40;100670.66;146624;694;46010;-79
2023/04/20 11:34:42;;;;;;;;;4.00;4.00;;;;;21.79;47.15;100665.34;146622;614;46012;-84
2023/04/20 11:37:43;;;;;;;;;4.00;3.33;;;;;21.82;46.31;100656.56;146625;570;46021;-87
2023/04/20 11:40:56;;;;;;;;;3.00;3.00;;;;;21.88;47.27;100652.19;146623;671;45016;-78
2023/04/20 11:43:53;;;;;;;;;3.00;3.00;;;;;21.98;45.96;100647.81;146625;585;46020;-83
2023/04/20 11:46:55;;;;;;;;;2.67;2.00;;;;;22.09;44.26;100639.94;146619;606;47014;-83
2023/04/20 11:50:04;;;;;;;;;4.00;4.00;;;;;22.10;44.58;100632.00;146625;598;46010;-84
2023/04/20 11:53:13;;;;;;;;;2.33;1.33;;;;;22.10;43.11;100634.66;146622;582;46032;-85
2023/04/20 11:56:19;;;;;;;;;1.67;1.33;;;;;21.93;41.63;100628.44;146624;597;47010;-82
2023/04/20 11:59:19;;;;;;;;;2.00;2.00;;;;;21.73;43.99;100628.38;146621;612;46915;-81
2023/04/20 12:02:30;;;;;;;;;;;;;;;;;;;;;
2023/04/20 12:05:31;;;;;;;;;5.00;3.67;;;;;21.82;41.06;100602.00;146620;608;46012;-83
2023/04/20 12:08:35;;;;;;;;;3.00;3.00;;;;;21.75;40.85;100613.44;146623;590;46014;-83
2023/04/20 12:11:29;;;;;;;;;2.67;2.67;;;;;21.59;41.51;100608.97;146621;669;46014;-87
2023/04/20 12:14:26;;;;;;;;;3.00;3.00;;;;;21.52;44.13;100605.41;146625;616;46021;-83
2023/04/20 12:17:35;;;;;;;;;1.00;1.00;;;;;21.66;44.69;100598.44;146623;627;46016;-85
2023/04/20 12:20:36;;;;;;;;;1.00;1.00;;;;;21.80;46.49;100581.75;146626;649;46014;-85
2023/04/20 12:23:32;;;;;;;;;2.00;2.00;;;;;21.93;44.01;100580.91;146621;564;46012;-86
2023/04/20 12:26:26;;;;;;;;;2.00;2.00;;;;;21.96;42.64;100578.28;146622;577;46023;-85
2023/04/20 12:29:35;;;;;;;;;3.00;3.00;;;;;21.92;41.95;100576.53;146617;616;47013;-87
2023/04/20 12:32:37;;;;;;;;;2.00;2.00;;;;;21.96;43.45;100572.13;146625;589;46010;-83
2023/04/20 12:35:48;;;;;;;;;;;;;;;;;;;;;
2023/04/20 12:38:51;;;;;;;;;4.00;3.00;;;;;22.04;42.19;100573.03;146624;630;47010;-89
2023/04/20 12:42:10;;;;;;;;;1.67;1.67;;;;;22.00;43.38;100572.16;146619;574;47012;-85
2023/04/20 12:45:04;;;;;;;;;2.00;2.00;;;;;21.94;41.56;100565.97;146628;653;46010;-87
2023/04/20 12:48:05;;;;;;;;;2.00;2.00;;;;;21.91;42.30;100565.09;146618;592;46016;-85
2023/04/20 12:51:06;;;;;;;;;3.67;2.00;;;;;21.86;43.29;100568.59;146624;663;46010;-85
2023/04/20 12:54:19;;;;;;;;;;;;;;;;;;;;;
2023/04/20 12:57:24;;;;;;;;;2.00;2.00;;;;;21.70;46.28;100564.12;146626;565;46034;-88
2023/04/20 13:00:26;;;;;;;;;2.00;2.00;;;;;21.71;44.48;100568.53;146621;610;46017;-84
2023/04/20 13:03:36;;;;;;;;;3.00;2.00;;;;;21.70;45.75;100564.12;146626;589;46022;-85
2023/04/20 13:06:38;;;;;;;;;2.00;2.00;;;;;21.63;44.74;100564.12;146619;601;46017;-88
2023/04/20 13:09:30;;;;;;;;;1.33;1.33;;;;;21.56;45.90;100562.34;146623;581;47010;-85
2023/04/20 13:12:23;;;;;;;;;2.00;1.00;;;;;21.56;45.01;100561.47;146618;602;46016;-84
2023/04/20 13:15:19;;;;;;;;;2.00;1.67;;;;;21.63;42.68;100564.12;146621;570;46021;-90
2023/04/20 13:18:14;;;;;;;;;2.00;2.00;;;;;21.65;43.16;100554.47;146620;598;46016;-86
2023/04/20 13:21:17;;;;;;;;;2.67;2.00;;;;;21.68;42.98;100553.56;146626;565;46029;-89
2023/04/20 13:24:03;;;;;;;;;1.33;1.33;;;;;21.70;42.52;100553.59;146711;565;46014;-84
2023/04/20 13:27:02;;;;;;;;;1.00;1.00;;;;;21.74;42.80;100545.66;146626;569;46016;-88
2023/04/20 13:30:05;;;;;;;;;;;;;;;;;;;;;
2023/04/20 13:33:12;;;;;;;;;0.67;0.00;;;;;21.95;42.90;100543.97;146627;589;46012;-88
2023/04/20 13:36:23;;;;;;;;;1.00;1.00;;;;;22.04;43.32;100550.16;146629;565;46020;-87
2023/04/20 13:39:36;;;;;;;;;1.00;1.00;;;;;21.35;44.18;100433.91;146626;621;46013;-86
2023/04/20 13:42:32;;;;;;;;;1.00;1.00;;;;;21.97;41.55;100551.03;146629;565;45027;-85
2023/04/20 13:45:31;;;;;;;;;1.67;1.67;;;;;21.97;43.21;100551.03;146626;672;46016;-85
2023/04/20 13:48:38;;;;;;;;;1.00;1.00;;;;;21.42;44.81;100445.34;146630;576;47010;-87
2023/04/20 13:51:39;;;;;;;;;2.00;1.00;;;;;22.04;42.61;100551.91;146625;570;46016;-83
2023/04/20 13:54:48;;;;;;;;;1.00;1.00;;;;;21.27;43.30;100466.34;146628;606;46021;-87
2023/04/20 13:58:13;;;;;;;;;4.00;2.00;;;;;21.49;46.61;100554.38;146627;566;46012;-87
2023/04/20 14:01:15;;;;;;;;;6.67;6.33;;;;;21.17;45.04;100558.59;146631;581;46012;-83
2023/04/20 14:04:20;;;;;;;;;2.67;2.67;;;;;20.94;49.60;100558.47;146624;575;46016;-87
2023/04/20 14:07:31;;;;;;;;;2.00;2.00;;;;;20.67;52.90;100559.16;146631;630;46010;-86
2023/04/20 14:10:30;;;;;;;;;4.00;4.00;;;;;20.42;52.58;100565.09;146617;573;47915;-86
2023/04/20 14:13:34;;;;;;;;;3.00;3.00;;;;;20.21;54.07;100557.88;146627;689;47012;-87
2023/04/20 14:16:28;;;;;;;;;5.00;4.00;;;;;20.12;54.24;100560.41;146626;578;46013;-89
2023/04/20 14:19:33;;;;;;;;;5.67;4.00;;;;;20.01;55.60;100555.94;146633;602;46010;-94
2023/04/20 14:22:44;;;;;;;;;;;;;;;;;;;;;
2023/04/20 14:25:57;;;;;;;;;6.67;5.67;;;;;19.99;53.86;100577.84;146622;585;46020;-90